sensor_id;sensor_type;location;lat;lon;timestamp;pressure;altitude;pressure_sealevel;temperature;humidity
44027;BME280;29696;55.698;37.460;2023-04-02T00:04:20;98859.03;;;6.86;84.55
44027;BME280;29696;55.698;37.460;2023-04-02T00:06:52;98857.50;;;6.84;85.01
44027;BME280;29696;55.698;37.460;2023-04-02T00:09:23;98857.50;;;6.84;84.90
44027;BME280;29696;55.698;37.460;2023-04-02T00:11:51;98865.25;;;6.85;85.09
44027;BME280;29696;55.698;37.460;2023-04-02T00:14:29;98865.31;;;6.95;85.35
44027;BME280;29696;55.698;37.460;2023-04-02T00:16:57;98866.53;;;6.91;85.13
44027;BME280;29696;55.698;37.460;2023-04-02T00:22:43;98879.53;;;6.93;85.05
44027;BME280;29696;55.698;37.460;2023-04-02T00:25:12;98879.69;;;6.91;85.05
44027;BME280;29696;55.698;37.460;2023-04-02T00:27:39;98880.19;;;6.85;85.13
44027;BME280;29696;55.698;37.460;2023-04-02T00:30:09;98875.75;;;6.85;85.38
44027;BME280;29696;55.698;37.460;2023-04-02T00:32:38;98888.75;;;6.87;85.40
44027;BME280;29696;55.698;37.460;2023-04-02T00:35:30;98887.88;;;6.98;85.55
44027;BME280;29696;55.698;37.460;2023-04-02T00:37:56;98880.03;;;6.86;85.62
44027;BME280;29696;55.698;37.460;2023-04-02T00:40:28;98890.03;;;6.93;86.13
44027;BME280;29696;55.698;37.460;2023-04-02T00:42:58;98882.97;;;6.93;85.93
44027;BME280;29696;55.698;37.460;2023-04-02T00:45:27;98887.88;;;6.98;85.72
44027;BME280;29696;55.698;37.460;2023-04-02T00:47:58;98888.94;;;6.95;85.55
44027;BME280;29696;55.698;37.460;2023-04-02T00:50:34;98890.22;;;7.01;85.68
44027;BME280;29696;55.698;37.460;2023-04-02T00:53:10;98892.13;;;6.99;85.61
44027;BME280;29696;55.698;37.460;2023-04-02T00:55:40;98894.19;;;6.95;85.87
44027;BME280;29696;55.698;37.460;2023-04-02T00:58:18;98901.56;;;7.01;85.96
44027;BME280;29696;55.698;37.460;2023-04-02T01:00:51;98884.78;;;6.93;85.62
44027;BME280;29696;55.698;37.460;2023-04-02T01:03:37;98882.47;;;6.99;86.19
44027;BME280;29696;55.698;37.460;2023-04-02T01:06:28;98903.63;;;6.98;86.24
44027;BME280;29696;55.698;37.460;2023-04-02T01:09:25;98886.31;;;6.95;86.39
44027;BME280;29696;55.698;37.460;2023-04-02T01:12:42;98889.41;;;7.00;86.37
44027;BME280;29696;55.698;37.460;2023-04-02T01:15:18;98893.41;;;7.04;86.53
44027;BME280;29696;55.698;37.460;2023-04-02T01:18:13;98889.97;;;7.04;86.20
44027;BME280;29696;55.698;37.460;2023-04-02T01:21:16;98889.97;;;7.04;86.22
44027;BME280;29696;55.698;37.460;2023-04-02T01:24:08;98883.03;;;7.03;86.43
44027;BME280;29696;55.698;37.460;2023-04-02T01:26:50;98883.53;;;6.97;86.56
44027;BME280;29696;55.698;37.460;2023-04-02T01:29:23;98885.34;;;6.96;86.34
44027;BME280;29696;55.698;37.460;2023-04-02T01:31:52;98885.75;;;6.92;86.24
44027;BME280;29696;55.698;37.460;2023-04-02T01:34:22;98891.00;;;6.92;86.61
44027;BME280;29696;55.698;37.460;2023-04-02T01:40:24;98889.13;;;7.03;86.57
44027;BME280;29696;55.698;37.460;2023-04-02T01:46:32;98885.44;;;7.06;86.33
44027;BME280;29696;55.698;37.460;2023-04-02T01:49:02;98880.28;;;7.04;86.04
44027;BME280;29696;55.698;37.460;2023-04-02T01:51:41;98878.50;;;7.05;85.60
44027;BME280;29696;55.698;37.460;2023-04-02T01:54:08;98876.13;;;7.02;85.51
44027;BME280;29696;55.698;37.460;2023-04-02T01:56:36;98868.94;;;7.04;85.54
44027;BME280;29696;55.698;37.460;2023-04-02T01:59:03;98874.47;;;7.01;85.48
44027;BME280;29696;55.698;37.460;2023-04-02T02:01:48;98879.66;;;7.12;85.83
44027;BME280;29696;55.698;37.460;2023-04-02T02:04:17;98890.53;;;7.07;85.43
44027;BME280;29696;55.698;37.460;2023-04-02T02:06:45;98886.09;;;7.08;85.23
44027;BME280;29696;55.698;37.460;2023-04-02T02:09:19;98889.91;;;7.15;85.25
44027;BME280;29696;55.698;37.460;2023-04-02T02:11:49;98881.81;;;7.07;85.19
44027;BME280;29696;55.698;37.460;2023-04-02T02:14:18;98889.44;;;7.10;84.86
44027;BME280;29696;55.698;37.460;2023-04-02T02:17:07;98888.63;;;7.09;84.90
44027;BME280;29696;55.698;37.460;2023-04-02T02:19:42;98890.00;;;7.14;85.09
44027;BME280;29696;55.698;37.460;2023-04-02T02:22:34;98894.47;;;7.23;84.97
44027;BME280;29696;55.698;37.460;2023-04-02T02:25:06;98894.88;;;7.18;84.68
44027;BME280;29696;55.698;37.460;2023-04-02T02:27:45;98896.53;;;7.19;84.17
44027;BME280;29696;55.698;37.460;2023-04-02T02:30:23;98893.78;;;7.21;84.14
44027;BME280;29696;55.698;37.460;2023-04-02T02:33:25;98902.25;;;7.24;84.04
44027;BME280;29696;55.698;37.460;2023-04-02T02:36:11;98901.22;;;7.16;84.04
44027;BME280;29696;55.698;37.460;2023-04-02T02:41:51;98904.25;;;7.11;83.86
44027;BME280;29696;55.698;37.460;2023-04-02T02:44:23;98900.22;;;7.07;84.14
44027;BME280;29696;55.698;37.460;2023-04-02T02:46:53;98903.66;;;7.07;83.74
44027;BME280;29696;55.698;37.460;2023-04-02T02:49:35;98898.16;;;7.11;83.73
44027;BME280;29696;55.698;37.460;2023-04-02T02:52:22;98903.72;;;7.17;83.66
44027;BME280;29696;55.698;37.460;2023-04-02T02:55:13;98905.50;;;7.17;83.27
44027;BME280;29696;55.698;37.460;2023-04-02T02:57:50;98904.94;;;7.13;83.24
44027;BME280;29696;55.698;37.460;2023-04-02T03:00:19;98904.63;;;7.06;82.87
44027;BME280;29696;55.698;37.460;2023-04-02T03:02:47;98908.91;;;7.07;83.16
44027;BME280;29696;55.698;37.460;2023-04-02T03:05:20;98898.31;;;7.09;83.19
44027;BME280;29696;55.698;37.460;2023-04-02T03:07:50;98910.91;;;7.15;82.97
44027;BME280;29696;55.698;37.460;2023-04-02T03:10:23;98907.88;;;7.20;82.74
44027;BME280;29696;55.698;37.460;2023-04-02T03:13:23;98915.69;;;7.31;82.55
44027;BME280;29696;55.698;37.460;2023-04-02T03:16:17;98923.56;;;7.31;82.17
44027;BME280;29696;55.698;37.460;2023-04-02T03:22:29;98929.66;;;7.31;82.31
44027;BME280;29696;55.698;37.460;2023-04-02T03:25:32;98933.13;;;7.32;81.99
44027;BME280;29696;55.698;37.460;2023-04-02T03:28:05;98932.34;;;7.20;81.79
44027;BME280;29696;55.698;37.460;2023-04-02T03:30:58;98938.25;;;7.34;81.83
44027;BME280;29696;55.698;37.460;2023-04-02T03:33:39;98928.84;;;7.31;81.54
44027;BME280;29696;55.698;37.460;2023-04-02T03:36:27;98930.69;;;7.40;81.51
44027;BME280;29696;55.698;37.460;2023-04-02T03:39:29;98934.16;;;7.50;81.13
44027;BME280;29696;55.698;37.460;2023-04-02T03:42:04;98936.38;;;7.45;80.33
44027;BME280;29696;55.698;37.460;2023-04-02T03:44:47;98934.75;;;7.54;80.47
44027;BME280;29696;55.698;37.460;2023-04-02T03:51:03;98935.06;;;7.61;79.90
44027;BME280;29696;55.698;37.460;2023-04-02T03:53:32;98932.66;;;7.48;79.17
44027;BME280;29696;55.698;37.460;2023-04-02T03:56:00;98926.50;;;7.38;79.04
44027;BME280;29696;55.698;37.460;2023-04-02T03:58:52;98935.28;;;7.48;80.15
44027;BME280;29696;55.698;37.460;2023-04-02T04:01:32;98935.53;;;7.45;80.31
44027;BME280;29696;55.698;37.460;2023-04-02T04:04:17;98927.53;;;7.46;80.09
44027;BME280;29696;55.698;37.460;2023-04-02T04:06:48;98926.13;;;7.42;80.22
44027;BME280;29696;55.698;37.460;2023-04-02T04:09:32;98919.00;;;7.54;79.93
44027;BME280;29696;55.698;37.460;2023-04-02T04:15:03;98931.59;;;7.60;78.41
44027;BME280;29696;55.698;37.460;2023-04-02T04:20:54;98941.06;;;7.72;78.03
44027;BME280;29696;55.698;37.460;2023-04-02T04:23:48;98947.88;;;7.85;77.65
44027;BME280;29696;55.698;37.460;2023-04-02T04:26:22;98956.72;;;7.84;77.06
44027;BME280;29696;55.698;37.460;2023-04-02T04:29:30;98955.25;;;7.91;76.60
44027;BME280;29696;55.698;37.460;2023-04-02T04:32:21;98957.84;;;7.81;76.24
44027;BME280;29696;55.698;37.460;2023-04-02T04:35:06;98953.78;;;7.77;76.50
44027;BME280;29696;55.698;37.460;2023-04-02T04:37:42;98955.31;;;7.70;76.09
44027;BME280;29696;55.698;37.460;2023-04-02T04:40:19;98953.94;;;7.75;76.12
44027;BME280;29696;55.698;37.460;2023-04-02T04:42:52;98957.25;;;7.77;75.97
44027;BME280;29696;55.698;37.460;2023-04-02T04:45:55;98955.09;;;7.92;75.76
44027;BME280;29696;55.698;37.460;2023-04-02T04:48:36;98970.19;;;7.90;75.42
44027;BME280;29696;55.698;37.460;2023-04-02T04:51:08;98965.59;;;7.83;75.07
44027;BME280;29696;55.698;37.460;2023-04-02T04:53:46;98958.66;;;7.82;75.41
44027;BME280;29696;55.698;37.460;2023-04-02T04:56:16;98964.47;;;7.75;75.34
44027;BME280;29696;55.698;37.460;2023-04-02T04:59:12;98964.19;;;7.78;75.31
44027;BME280;29696;55.698;37.460;2023-04-02T05:01:51;98967.50;;;7.81;75.47
44027;BME280;29696;55.698;37.460;2023-04-02T05:04:41;98969.63;;;7.87;75.59
44027;BME280;29696;55.698;37.460;2023-04-02T05:07:19;98966.94;;;7.77;75.78
44027;BME280;29696;55.698;37.460;2023-04-02T05:13:27;98970.84;;;7.83;75.70
44027;BME280;29696;55.698;37.460;2023-04-02T05:16:24;98968.63;;;7.78;75.61
44027;BME280;29696;55.698;37.460;2023-04-02T05:22:19;98979.63;;;7.62;75.84
44027;BME280;29696;55.698;37.460;2023-04-02T05:24:57;98980.69;;;7.60;75.85
44027;BME280;29696;55.698;37.460;2023-04-02T05:28:30;98978.34;;;7.57;76.24
44027;BME280;29696;55.698;37.460;2023-04-02T05:30:54;98992.19;;;7.59;75.95
44027;BME280;29696;55.698;37.460;2023-04-02T05:33:32;98995.91;;;7.56;76.08
44027;BME280;29696;55.698;37.460;2023-04-02T05:36:11;98989.03;;;7.65;75.80
44027;BME280;29696;55.698;37.460;2023-04-02T05:38:45;98990.00;;;7.64;75.40
44027;BME280;29696;55.698;37.460;2023-04-02T05:41:24;98986.72;;;7.71;75.39
44027;BME280;29696;55.698;37.460;2023-04-02T05:47:22;98995.50;;;7.82;74.96
44027;BME280;29696;55.698;37.460;2023-04-02T05:52:57;98996.38;;;8.01;74.21
44027;BME280;29696;55.698;37.460;2023-04-02T05:55:34;98997.66;;;8.07;73.75
44027;BME280;29696;55.698;37.460;2023-04-02T05:58:15;98995.28;;;8.04;73.82
44027;BME280;29696;55.698;37.460;2023-04-02T06:01:16;98994.06;;;8.08;74.11
44027;BME280;29696;55.698;37.460;2023-04-02T06:03:54;98991.16;;;8.11;73.72
44027;BME280;29696;55.698;37.460;2023-04-02T06:07:00;98991.34;;;8.29;72.96
44027;BME280;29696;55.698;37.460;2023-04-02T06:09:49;99000.38;;;8.36;71.45
44027;BME280;29696;55.698;37.460;2023-04-02T06:15:35;98993.66;;;8.13;73.09
44027;BME280;29696;55.698;37.460;2023-04-02T06:18:12;98993.56;;;8.34;73.39
44027;BME280;29696;55.698;37.460;2023-04-02T06:20:41;98993.53;;;8.14;72.00
44027;BME280;29696;55.698;37.460;2023-04-02T06:29:41;98997.38;;;8.70;71.36
44027;BME280;29696;55.698;37.460;2023-04-02T06:32:13;98995.72;;;8.59;70.17
44027;BME280;29696;55.698;37.460;2023-04-02T06:34:43;98986.72;;;8.62;70.13
44027;BME280;29696;55.698;37.460;2023-04-02T06:37:36;98987.16;;;8.86;70.40
44027;BME280;29696;55.698;37.460;2023-04-02T06:40:37;98982.84;;;8.95;69.79
44027;BME280;29696;55.698;37.460;2023-04-02T06:43:58;98985.88;;;9.10;69.53
44027;BME280;29696;55.698;37.460;2023-04-02T06:47:03;98988.78;;;9.17;67.82
44027;BME280;29696;55.698;37.460;2023-04-02T06:53:49;98988.97;;;9.62;66.78
44027;BME280;29696;55.698;37.460;2023-04-02T07:04:10;98999.28;;;9.46;66.32
44027;BME280;29696;55.698;37.460;2023-04-02T07:06:40;98998.69;;;9.62;65.64
44027;BME280;29696;55.698;37.460;2023-04-02T07:09:07;99004.94;;;9.60;65.33
44027;BME280;29696;55.698;37.460;2023-04-02T07:11:37;98999.84;;;9.49;64.38
44027;BME280;29696;55.698;37.460;2023-04-02T07:14:06;99004.84;;;9.33;64.81
44027;BME280;29696;55.698;37.460;2023-04-02T07:16:34;99012.78;;;9.23;65.63
44027;BME280;29696;55.698;37.460;2023-04-02T07:19:02;99008.06;;;9.17;65.83
44027;BME280;29696;55.698;37.460;2023-04-02T07:21:32;99018.34;;;9.10;65.85
44027;BME280;29696;55.698;37.460;2023-04-02T07:23:58;99013.50;;;8.96;66.19
44027;BME280;29696;55.698;37.460;2023-04-02T07:26:26;99019.88;;;8.94;66.36
44027;BME280;29696;55.698;37.460;2023-04-02T07:28:55;99026.94;;;8.93;66.69
44027;BME280;29696;55.698;37.460;2023-04-02T07:31:24;99024.59;;;8.90;66.31
44027;BME280;29696;55.698;37.460;2023-04-02T07:33:54;99031.50;;;8.91;65.73
44027;BME280;29696;55.698;37.460;2023-04-02T07:36:23;99025.09;;;8.64;66.33
44027;BME280;29696;55.698;37.460;2023-04-02T07:38:49;99031.91;;;8.67;67.38
44027;BME280;29696;55.698;37.460;2023-04-02T07:41:17;99038.31;;;8.84;67.42
44027;BME280;29696;55.698;37.460;2023-04-02T07:43:45;99023.63;;;9.01;66.25
44027;BME280;29696;55.698;37.460;2023-04-02T07:46:12;99024.56;;;9.29;65.59
44027;BME280;29696;55.698;37.460;2023-04-02T07:48:42;99023.03;;;9.46;64.48
44027;BME280;29696;55.698;37.460;2023-04-02T07:51:23;99023.56;;;9.49;64.48
44027;BME280;29696;55.698;37.460;2023-04-02T07:53:50;99031.09;;;9.25;64.07
44027;BME280;29696;55.698;37.460;2023-04-02T07:56:22;99032.50;;;9.19;64.70
44027;BME280;29696;55.698;37.460;2023-04-02T07:58:48;99027.34;;;9.18;65.26
44027;BME280;29696;55.698;37.460;2023-04-02T08:01:21;99034.28;;;9.28;65.23
44027;BME280;29696;55.698;37.460;2023-04-02T08:03:49;99029.56;;;9.22;65.61
44027;BME280;29696;55.698;37.460;2023-04-02T08:06:15;99032.47;;;9.29;65.40
44027;BME280;29696;55.698;37.460;2023-04-02T08:08:42;99042.88;;;9.21;65.31
44027;BME280;29696;55.698;37.460;2023-04-02T08:11:09;99031.81;;;9.07;65.77
44027;BME280;29696;55.698;37.460;2023-04-02T08:13:36;99039.16;;;9.04;66.28
44027;BME280;29696;55.698;37.460;2023-04-02T08:16:04;99045.53;;;9.01;66.35
44027;BME280;29696;55.698;37.460;2023-04-02T08:18:31;99046.06;;;9.14;66.41
44027;BME280;29696;55.698;37.460;2023-04-02T08:20:58;99049.25;;;9.18;66.37
44027;BME280;29696;55.698;37.460;2023-04-02T08:23:25;99052.88;;;9.27;65.64
44027;BME280;29696;55.698;37.460;2023-04-02T08:25:53;99046.91;;;9.15;65.83
44027;BME280;29696;55.698;37.460;2023-04-02T08:28:20;99044.97;;;8.98;66.10
44027;BME280;29696;55.698;37.460;2023-04-02T08:30:47;99049.13;;;8.90;67.29
44027;BME280;29696;55.698;37.460;2023-04-02T08:33:18;99040.66;;;8.87;67.10
44027;BME280;29696;55.698;37.460;2023-04-02T08:35:48;99043.31;;;8.97;67.73
44027;BME280;29696;55.698;37.460;2023-04-02T08:38:17;99043.72;;;9.02;67.32
44027;BME280;29696;55.698;37.460;2023-04-02T08:40:50;99046.78;;;9.07;67.30
44027;BME280;29696;55.698;37.460;2023-04-02T08:49:32;99042.06;;;9.10;67.38
44027;BME280;29696;55.698;37.460;2023-04-02T08:52:00;99040.41;;;8.90;67.61
44027;BME280;29696;55.698;37.460;2023-04-02T08:54:30;99034.72;;;8.95;67.70
44027;BME280;29696;55.698;37.460;2023-04-02T09:00:36;99040.25;;;9.21;67.98
44027;BME280;29696;55.698;37.460;2023-04-02T09:03:40;99040.38;;;9.29;67.82
44027;BME280;29696;55.698;37.460;2023-04-02T09:06:11;99037.19;;;9.25;67.15
44027;BME280;29696;55.698;37.460;2023-04-02T09:08:38;99042.31;;;9.27;66.89
44027;BME280;29696;55.698;37.460;2023-04-02T09:14:34;99052.47;;;9.31;67.46
44027;BME280;29696;55.698;37.460;2023-04-02T09:17:18;99047.72;;;9.35;67.44
44027;BME280;29696;55.698;37.460;2023-04-02T09:19:57;99064.38;;;9.55;66.86
44027;BME280;29696;55.698;37.460;2023-04-02T09:22:31;99049.78;;;9.60;66.00
44027;BME280;29696;55.698;37.460;2023-04-02T09:25:02;99056.31;;;9.56;66.26
44027;BME280;29696;55.698;37.460;2023-04-02T09:27:32;99051.06;;;9.47;66.63
44027;BME280;29696;55.698;37.460;2023-04-02T09:30:06;99056.06;;;9.40;67.01
44027;BME280;29696;55.698;37.460;2023-04-02T09:33:03;99050.50;;;9.43;68.00
44027;BME280;29696;55.698;37.460;2023-04-02T09:35:35;99052.59;;;9.30;67.71
44027;BME280;29696;55.698;37.460;2023-04-02T09:38:31;99047.81;;;9.63;67.05
44027;BME280;29696;55.698;37.460;2023-04-02T09:41:05;99055.06;;;9.60;66.79
44027;BME280;29696;55.698;37.460;2023-04-02T09:43:34;99054.50;;;9.57;66.93
44027;BME280;29696;55.698;37.460;2023-04-02T09:46:04;99056.94;;;9.78;66.47
44027;BME280;29696;55.698;37.460;2023-04-02T09:48:33;99042.91;;;9.77;66.07
44027;BME280;29696;55.698;37.460;2023-04-02T09:51:16;99048.97;;;9.97;66.41
44027;BME280;29696;55.698;37.460;2023-04-02T09:53:47;99051.34;;;10.00;65.96
44027;BME280;29696;55.698;37.460;2023-04-02T09:56:38;99047.19;;;10.25;65.79
44027;BME280;29696;55.698;37.460;2023-04-02T09:59:16;99045.88;;;10.02;65.03
44027;BME280;29696;55.698;37.460;2023-04-02T10:01:45;99047.88;;;10.00;65.23
44027;BME280;29696;55.698;37.460;2023-04-02T10:04:40;99049.75;;;10.17;65.70
44027;BME280;29696;55.698;37.460;2023-04-02T10:07:32;99062.66;;;10.20;65.66
44027;BME280;29696;55.698;37.460;2023-04-02T10:10:18;99056.38;;;10.21;65.45
44027;BME280;29696;55.698;37.460;2023-04-02T10:12:56;99057.09;;;10.23;65.09
44027;BME280;29696;55.698;37.460;2023-04-02T10:15:30;99055.97;;;10.16;65.04
44027;BME280;29696;55.698;37.460;2023-04-02T10:18:06;99049.34;;;10.12;65.27
44027;BME280;29696;55.698;37.460;2023-04-02T10:20:33;99055.31;;;10.14;64.96
44027;BME280;29696;55.698;37.460;2023-04-02T10:23:02;99054.84;;;10.28;64.86
44027;BME280;29696;55.698;37.460;2023-04-02T10:25:31;99053.56;;;10.60;63.99
44027;BME280;29696;55.698;37.460;2023-04-02T10:31:25;99056.03;;;11.07;62.67
44027;BME280;29696;55.698;37.460;2023-04-02T10:33:59;99049.44;;;11.11;62.17
44027;BME280;29696;55.698;37.460;2023-04-02T10:37:11;99039.69;;;11.30;62.20
44027;BME280;29696;55.698;37.460;2023-04-02T10:39:46;99039.19;;;11.08;61.88
44027;BME280;29696;55.698;37.460;2023-04-02T10:45:41;99042.94;;;11.68;60.68
44027;BME280;29696;55.698;37.460;2023-04-02T10:48:39;99039.97;;;11.88;60.38
44027;BME280;29696;55.698;37.460;2023-04-02T10:51:38;99043.97;;;12.27;59.40
44027;BME280;29696;55.698;37.460;2023-04-02T10:57:37;99041.06;;;12.54;57.88
44027;BME280;29696;55.698;37.460;2023-04-02T11:03:04;99034.00;;;12.79;56.75
44027;BME280;29696;55.698;37.460;2023-04-02T11:09:02;99030.72;;;12.94;56.69
44027;BME280;29696;55.698;37.460;2023-04-02T11:11:34;99034.31;;;12.76;56.65
44027;BME280;29696;55.698;37.460;2023-04-02T11:14:26;99026.75;;;12.90;56.43
44027;BME280;29696;55.698;37.460;2023-04-02T11:16:54;99038.47;;;12.63;56.61
44027;BME280;29696;55.698;37.460;2023-04-02T11:19:32;99037.13;;;12.67;57.30
44027;BME280;29696;55.698;37.460;2023-04-02T11:22:20;99036.34;;;12.74;57.19
44027;BME280;29696;55.698;37.460;2023-04-02T11:24:51;99042.22;;;12.52;56.73
44027;BME280;29696;55.698;37.460;2023-04-02T11:27:41;99036.28;;;12.58;57.57
44027;BME280;29696;55.698;37.460;2023-04-02T11:30:30;99048.66;;;12.49;58.12
44027;BME280;29696;55.698;37.460;2023-04-02T11:33:24;99049.50;;;12.50;57.84
44027;BME280;29696;55.698;37.460;2023-04-02T11:35:51;99043.59;;;12.22;57.45
44027;BME280;29696;55.698;37.460;2023-04-02T11:42:02;99036.03;;;12.35;58.19
44027;BME280;29696;55.698;37.460;2023-04-02T11:44:29;99038.91;;;12.07;57.99
44027;BME280;29696;55.698;37.460;2023-04-02T11:47:33;99046.13;;;12.31;58.73
44027;BME280;29696;55.698;37.460;2023-04-02T11:50:01;99043.75;;;12.20;58.03
44027;BME280;29696;55.698;37.460;2023-04-02T11:55:33;99052.00;;;12.09;58.09
44027;BME280;29696;55.698;37.460;2023-04-02T12:11:32;99044.28;;;12.24;58.19
44027;BME280;29696;55.698;37.460;2023-04-02T12:13:59;99045.56;;;12.12;57.72
44027;BME280;29696;55.698;37.460;2023-04-02T12:16:26;99036.47;;;12.22;57.27
44027;BME280;29696;55.698;37.460;2023-04-02T12:18:58;99048.13;;;12.29;56.78
44027;BME280;29696;55.698;37.460;2023-04-02T12:21:27;99040.53;;;12.43;57.12
44027;BME280;29696;55.698;37.460;2023-04-02T12:23:59;99044.69;;;12.45;56.99
44027;BME280;29696;55.698;37.460;2023-04-02T12:27:05;99054.16;;;12.56;57.50
44027;BME280;29696;55.698;37.460;2023-04-02T12:29:31;99045.69;;;12.10;57.14
44027;BME280;29696;55.698;37.460;2023-04-02T12:31:58;99045.56;;;12.12;57.71
44027;BME280;29696;55.698;37.460;2023-04-02T12:34:27;99057.22;;;12.27;57.40
44027;BME280;29696;55.698;37.460;2023-04-02T12:37:02;99058.59;;;12.39;57.68
44027;BME280;29696;55.698;37.460;2023-04-02T12:39:33;99059.22;;;12.41;56.95
44027;BME280;29696;55.698;37.460;2023-04-02T12:42:00;99051.59;;;12.38;56.47
44027;BME280;29696;55.698;37.460;2023-04-02T12:44:28;99056.94;;;12.46;56.79
44027;BME280;29696;55.698;37.460;2023-04-02T12:46:55;99055.44;;;12.44;56.76
44027;BME280;29696;55.698;37.460;2023-04-02T12:49:40;99063.28;;;12.62;57.15
44027;BME280;29696;55.698;37.460;2023-04-02T12:52:13;99062.75;;;12.50;56.56
44027;BME280;29696;55.698;37.460;2023-04-02T12:54:52;99062.63;;;12.60;57.23
44027;BME280;29696;55.698;37.460;2023-04-02T12:57:46;99069.41;;;12.62;57.28
44027;BME280;29696;55.698;37.460;2023-04-02T13:00:41;99062.31;;;12.63;57.46
44027;BME280;29696;55.698;37.460;2023-04-02T13:06:02;99061.41;;;12.46;56.78
44027;BME280;29696;55.698;37.460;2023-04-02T13:08:38;99068.22;;;12.48;57.10
44027;BME280;29696;55.698;37.460;2023-04-02T13:11:05;99057.25;;;12.01;57.00
44027;BME280;29696;55.698;37.460;2023-04-02T13:13:34;99067.03;;;11.82;57.82
44027;BME280;29696;55.698;37.460;2023-04-02T13:16:36;99066.56;;;11.87;58.85
44027;BME280;29696;55.698;37.460;2023-04-02T13:19:36;99062.50;;;11.75;59.42
44027;BME280;29696;55.698;37.460;2023-04-02T13:22:02;99054.78;;;11.55;59.46
44027;BME280;29696;55.698;37.460;2023-04-02T13:24:31;99066.50;;;11.53;59.45
44027;BME280;29696;55.698;37.460;2023-04-02T13:27:02;99063.53;;;11.56;59.68
44027;BME280;29696;55.698;37.460;2023-04-02T13:29:34;99064.38;;;11.56;59.45
44027;BME280;29696;55.698;37.460;2023-04-02T13:32:11;99064.06;;;11.59;59.75
44027;BME280;29696;55.698;37.460;2023-04-02T13:34:38;99060.69;;;11.49;59.41
44027;BME280;29696;55.698;37.460;2023-04-02T13:37:04;99068.84;;;11.56;58.93
44027;BME280;29696;55.698;37.460;2023-04-02T13:39:31;99065.19;;;11.57;58.79
44027;BME280;29696;55.698;37.460;2023-04-02T13:42:17;99063.38;;;11.83;59.14
44027;BME280;29696;55.698;37.460;2023-04-02T13:44:44;99059.84;;;11.75;58.58
44027;BME280;29696;55.698;37.460;2023-04-02T13:47:14;99057.59;;;11.80;58.75
44027;BME280;29696;55.698;37.460;2023-04-02T13:49:40;99060.38;;;11.78;58.58
44027;BME280;29696;55.698;37.460;2023-04-02T13:52:13;99054.75;;;11.81;58.74
44027;BME280;29696;55.698;37.460;2023-04-02T13:55:02;99058.09;;;11.83;59.03
44027;BME280;29696;55.698;37.460;2023-04-02T13:57:29;99062.72;;;11.55;58.92
44027;BME280;29696;55.698;37.460;2023-04-02T13:59:56;99056.66;;;11.45;58.59
44027;BME280;29696;55.698;37.460;2023-04-02T14:02:24;99060.09;;;11.37;59.19
44027;BME280;29696;55.698;37.460;2023-04-02T14:04:59;99055.41;;;11.31;59.51
44027;BME280;29696;55.698;37.460;2023-04-02T14:20:34;99057.25;;;11.31;60.08
44027;BME280;29696;55.698;37.460;2023-04-02T14:23:28;99055.88;;;11.27;60.45
44027;BME280;29696;55.698;37.460;2023-04-02T14:26:16;99051.97;;;11.13;60.81
44027;BME280;29696;55.698;37.460;2023-04-02T14:36:14;99049.63;;;11.10;60.71
44027;BME280;29696;55.698;37.460;2023-04-02T14:43:16;99056.94;;;11.16;60.50
44027;BME280;29696;55.698;37.460;2023-04-02T14:46:00;99048.72;;;11.19;60.54
44027;BME280;29696;55.698;37.460;2023-04-02T14:49:20;99047.41;;;11.23;60.46
44027;BME280;29696;55.698;37.460;2023-04-02T14:51:51;99048.03;;;11.17;60.28
44027;BME280;29696;55.698;37.460;2023-04-02T14:54:52;99049.44;;;11.29;60.39
44027;BME280;29696;55.698;37.460;2023-04-02T14:57:37;99042.50;;;11.28;59.86
44027;BME280;29696;55.698;37.460;2023-04-02T15:03:27;99048.91;;;11.26;60.05
44027;BME280;29696;55.698;37.460;2023-04-02T15:06:05;99050.97;;;11.32;59.76
44027;BME280;29696;55.698;37.460;2023-04-02T15:08:58;99049.72;;;11.44;59.66
44027;BME280;29696;55.698;37.460;2023-04-02T15:11:30;99054.50;;;11.40;59.33
44027;BME280;29696;55.698;37.460;2023-04-02T15:14:22;99062.13;;;11.43;59.55
44027;BME280;29696;55.698;37.460;2023-04-02T15:16:51;99038.47;;;11.24;59.32
44027;BME280;29696;55.698;37.460;2023-04-02T15:19:18;99050.97;;;11.32;59.48
44027;BME280;29696;55.698;37.460;2023-04-02T15:25:49;99061.75;;;11.38;59.83
44027;BME280;29696;55.698;37.460;2023-04-02T15:28:28;99055.34;;;11.23;60.04
44027;BME280;29696;55.698;37.460;2023-04-02T15:31:02;99058.28;;;11.20;60.35
44027;BME280;29696;55.698;37.460;2023-04-02T15:34:17;99058.38;;;11.28;60.41
44027;BME280;29696;55.698;37.460;2023-04-02T15:37:26;99068.94;;;11.28;60.82
44027;BME280;29696;55.698;37.460;2023-04-02T15:43:29;99061.75;;;11.20;61.26
44027;BME280;29696;55.698;37.460;2023-04-02T15:46:42;99068.19;;;11.18;61.60
44027;BME280;29696;55.698;37.460;2023-04-02T15:50:04;99066.84;;;11.14;61.69
44027;BME280;29696;55.698;37.460;2023-04-02T16:00:31;99078.41;;;11.31;61.76
44027;BME280;29696;55.698;37.460;2023-04-02T16:03:43;99075.88;;;11.29;61.49
44027;BME280;29696;55.698;37.460;2023-04-02T16:14:27;99089.84;;;11.04;62.75
44027;BME280;29696;55.698;37.460;2023-04-02T16:17:18;99099.38;;;11.14;62.90
44027;BME280;29696;55.698;37.460;2023-04-02T16:19:55;99095.00;;;11.05;62.86
44027;BME280;29696;55.698;37.460;2023-04-02T16:22:42;99098.88;;;11.11;63.21
44027;BME280;29696;55.698;37.460;2023-04-02T16:25:37;99103.16;;;11.12;63.62
44027;BME280;29696;55.698;37.460;2023-04-02T16:28:38;99108.31;;;11.13;63.13
44027;BME280;29696;55.698;37.460;2023-04-02T16:34:36;99122.13;;;11.07;63.75
44027;BME280;29696;55.698;37.460;2023-04-02T16:43:55;99125.13;;;10.94;64.80
44027;BME280;29696;55.698;37.460;2023-04-02T17:00:56;99132.72;;;10.80;64.86
44027;BME280;29696;55.698;37.460;2023-04-02T17:06:46;99130.53;;;10.75;64.51
44027;BME280;29696;55.698;37.460;2023-04-02T17:09:47;99132.59;;;10.81;65.01